createdAt,value
2022-10-05T00:01:56.741Z,10.14
2022-10-05T00:04:10.679Z,10.18
2022-10-05T00:06:13.975Z,10.22
2022-10-05T00:08:19.413Z,10.24
2022-10-05T00:10:22.588Z,10.31
2022-10-05T00:12:26.951Z,10.33
2022-10-05T00:14:31.533Z,10.40
2022-10-05T00:16:35.942Z,10.56
2022-10-05T00:18:39.542Z,10.62
2022-10-05T00:20:43.040Z,10.62
2022-10-05T00:22:45.610Z,10.62
2022-10-05T00:24:50.652Z,10.69
2022-10-05T00:26:57.756Z,10.78
2022-10-05T00:29:03.498Z,10.88
2022-10-05T00:31:15.815Z,10.91
2022-10-05T00:33:19.797Z,10.94
2022-10-05T00:35:22.412Z,10.80
2022-10-05T00:37:25.031Z,10.85
2022-10-05T00:39:28.847Z,11.09
2022-10-05T00:41:41.547Z,11.08
2022-10-05T00:44:00.675Z,11.02
2022-10-05T00:46:09.212Z,10.92
2022-10-05T00:48:17.803Z,11.07
2022-10-05T00:50:46.096Z,11.08
2022-10-05T00:52:59.928Z,11.16
2022-10-05T00:55:12.132Z,11.27
2022-10-05T00:57:28.908Z,11.23
2022-10-05T00:59:43.376Z,11.25
2022-10-05T01:01:55.094Z,11.15
2022-10-05T01:04:08.265Z,10.98
2022-10-05T01:06:23.207Z,11.04
2022-10-05T01:08:38.093Z,11.00
2022-10-05T01:10:48.525Z,10.89
2022-10-05T01:13:01.572Z,10.99
2022-10-05T01:15:11.977Z,10.90
2022-10-05T01:17:20.055Z,10.88
2022-10-05T01:19:41.872Z,10.77
2022-10-05T01:21:54.651Z,10.79
2022-10-05T01:24:18.033Z,10.55
2022-10-05T01:26:36.408Z,10.49
2022-10-05T01:28:43.732Z,10.41
2022-10-05T01:30:54.648Z,10.31
2022-10-05T01:33:06.093Z,10.23
2022-10-05T01:35:22.348Z,10.13
2022-10-05T01:37:30.608Z,10.09
2022-10-05T01:39:42.855Z,10.17
2022-10-05T01:41:53.583Z,10.07
2022-10-05T01:44:02.217Z,10.04
2022-10-05T01:46:15.270Z,10.14
2022-10-05T01:48:24.990Z,10.10
2022-10-05T01:50:37.759Z,10.00
2022-10-05T01:52:49.244Z,9.98
2022-10-05T01:55:04.945Z,9.93
2022-10-05T01:57:14.940Z,9.90
2022-10-05T01:59:32.121Z,9.86
2022-10-05T02:01:42.146Z,9.85
2022-10-05T02:03:50.239Z,9.84
2022-10-05T02:05:56.623Z,9.85
2022-10-05T02:08:02.769Z,9.70
2022-10-05T02:10:12.043Z,9.74
2022-10-05T02:12:18.284Z,9.70
2022-10-05T02:14:25.857Z,9.71
2022-10-05T02:16:34.924Z,9.68
2022-10-05T02:18:42.529Z,9.70
2022-10-05T02:20:48.210Z,9.58
2022-10-05T02:22:54.129Z,9.59
2022-10-05T02:24:59.603Z,9.58
2022-10-05T02:27:05.971Z,9.60
2022-10-05T02:29:11.005Z,9.54
2022-10-05T02:31:19.057Z,9.56
2022-10-05T02:33:27.898Z,9.58
2022-10-05T02:35:30.612Z,9.51
2022-10-05T02:37:43.131Z,9.61
2022-10-05T02:39:59.226Z,9.65
2022-10-05T02:42:09.879Z,9.54
2022-10-05T02:44:25.049Z,9.50
2022-10-05T02:46:36.691Z,9.60
2022-10-05T02:48:49.612Z,9.62
2022-10-05T02:50:58.130Z,9.63
2022-10-05T02:53:15.694Z,9.65
2022-10-05T02:55:21.152Z,9.71
2022-10-05T02:57:29.792Z,9.74
2022-10-05T02:59:39.994Z,9.69
2022-10-05T03:01:51.456Z,9.73
2022-10-05T03:04:02.597Z,9.76
2022-10-05T03:06:11.639Z,9.73
2022-10-05T03:08:19.004Z,9.75
2022-10-05T03:10:29.267Z,9.83
2022-10-05T03:12:43.878Z,9.80
2022-10-05T03:14:58.939Z,9.67
2022-10-05T03:17:11.792Z,9.69
2022-10-05T03:19:26.788Z,9.60
2022-10-05T03:21:44.998Z,9.55
2022-10-05T03:24:11.952Z,9.86
2022-10-05T03:26:28.298Z,9.88
2022-10-05T03:28:38.944Z,10.07
2022-10-05T03:30:49.676Z,10.09
2022-10-05T03:33:02.227Z,10.13
2022-10-05T03:35:11.879Z,10.14
2022-10-05T03:37:22.891Z,9.90
2022-10-05T03:39:32.466Z,9.76
2022-10-05T03:41:41.328Z,9.77
2022-10-05T03:44:06.860Z,9.78
2022-10-05T03:46:18.039Z,9.70
2022-10-05T03:48:30.076Z,9.63
2022-10-05T03:50:43.503Z,9.60
2022-10-05T03:52:49.827Z,9.52
2022-10-05T03:54:59.155Z,9.49
2022-10-05T03:57:08.697Z,9.47
2022-10-05T03:59:16.818Z,9.45
2022-10-05T04:01:26.066Z,9.51
2022-10-05T04:03:35.462Z,9.46
2022-10-05T04:05:45.296Z,9.43
2022-10-05T04:07:54.571Z,9.42
2022-10-05T04:10:02.040Z,9.45
2022-10-05T04:12:13.706Z,9.35
2022-10-05T04:14:22.602Z,9.24
2022-10-05T04:16:28.916Z,9.22
2022-10-05T04:18:37.790Z,9.11
2022-10-05T04:20:45.683Z,9.13
2022-10-05T04:22:57.666Z,9.13
2022-10-05T04:25:09.093Z,9.09
2022-10-05T04:27:17.162Z,9.10
2022-10-05T04:29:32.247Z,9.07
2022-10-05T04:31:50.813Z,9.08
2022-10-05T04:34:05.501Z,8.92
2022-10-05T04:36:23.393Z,9.02
2022-10-05T04:38:41.448Z,8.93
2022-10-05T04:40:59.928Z,8.80
2022-10-05T04:43:09.435Z,8.87
2022-10-05T04:45:28.012Z,8.73
2022-10-05T04:47:45.348Z,8.56
2022-10-05T04:50:19.302Z,8.49
2022-10-05T04:52:31.434Z,8.52
2022-10-05T04:54:47.552Z,8.45
2022-10-05T04:56:54.463Z,8.38
2022-10-05T04:59:11.091Z,8.34
2022-10-05T05:01:30.929Z,8.21
2022-10-05T05:03:46.714Z,8.12
2022-10-05T05:06:17.990Z,8.04
2022-10-05T05:08:34.920Z,7.99
2022-10-05T05:10:54.478Z,8.11
2022-10-05T05:13:12.313Z,8.06
2022-10-05T05:15:27.142Z,8.17
2022-10-05T05:17:47.776Z,8.05
2022-10-05T05:20:02.707Z,8.11
2022-10-05T05:22:12.595Z,8.15
2022-10-05T05:24:21.980Z,8.14
2022-10-05T05:26:32.035Z,8.18
2022-10-05T05:28:43.340Z,8.12
2022-10-05T05:30:52.333Z,8.20
2022-10-05T05:33:19.310Z,8.19
2022-10-05T05:35:48.125Z,8.39
2022-10-05T05:38:01.047Z,8.42
2022-10-05T05:40:13.277Z,8.45
2022-10-05T05:42:36.832Z,8.42
2022-10-05T05:44:47.346Z,8.57
2022-10-05T05:47:05.412Z,8.57
2022-10-05T05:49:16.605Z,8.68
2022-10-05T05:51:24.237Z,8.70
2022-10-05T05:53:32.714Z,8.80
2022-10-05T05:55:40.557Z,8.87
2022-10-05T05:57:48.434Z,8.93
2022-10-05T06:00:00.460Z,8.95
2022-10-05T06:02:09.147Z,9.09
2022-10-05T06:04:16.616Z,9.08
2022-10-05T06:06:23.104Z,9.11
2022-10-05T06:08:36.099Z,9.14
2022-10-05T06:10:44.481Z,9.23
2022-10-05T06:12:50.503Z,9.28
2022-10-05T06:14:58.284Z,9.34
2022-10-05T06:17:05.932Z,9.43
2022-10-05T06:19:13.044Z,9.48
2022-10-05T06:21:21.577Z,9.52
2022-10-05T06:23:35.020Z,9.60
2022-10-05T06:25:51.187Z,9.69
2022-10-05T06:28:09.248Z,9.75
2022-10-05T06:30:14.073Z,9.81
2022-10-05T06:32:26.628Z,9.93
2022-10-05T06:34:46.265Z,10.04
2022-10-05T06:36:52.310Z,10.11
2022-10-05T06:39:12.900Z,10.13
2022-10-05T06:41:28.886Z,10.23
2022-10-05T06:43:44.733Z,10.38
2022-10-05T06:46:00.765Z,10.27
2022-10-05T06:48:12.664Z,10.35
2022-10-05T06:50:27.734Z,10.39
2022-10-05T06:52:43.273Z,10.56
2022-10-05T06:54:55.452Z,10.69
2022-10-05T06:57:05.928Z,10.84
2022-10-05T06:59:12.900Z,10.96
2022-10-05T07:01:26.266Z,11.01
2022-10-05T07:03:40.461Z,10.94
2022-10-05T07:05:54.184Z,11.25
2022-10-05T07:08:00.029Z,11.34
2022-10-05T07:10:18.135Z,11.36
2022-10-05T07:12:37.710Z,10.93
2022-10-05T07:14:56.774Z,11.00
2022-10-05T07:17:18.250Z,11.33
2022-10-05T07:19:33.280Z,11.42
2022-10-05T07:21:45.957Z,11.64
2022-10-05T07:23:59.895Z,11.97
2022-10-05T07:26:07.315Z,11.66
2022-10-05T07:28:18.011Z,12.10
2022-10-05T07:30:21.348Z,12.01
2022-10-05T07:32:35.481Z,12.53
2022-10-05T07:34:51.143Z,12.50
2022-10-05T07:37:18.063Z,12.22
2022-10-05T07:39:55.472Z,12.43
2022-10-05T07:42:04.387Z,12.17
2022-10-05T07:44:14.837Z,12.28
2022-10-05T07:46:24.809Z,12.53
2022-10-05T07:48:33.175Z,12.32
2022-10-05T07:50:41.514Z,12.50
2022-10-05T07:52:50.352Z,12.46
2022-10-05T07:55:02.355Z,12.55
2022-10-05T07:57:16.798Z,13.03
2022-10-05T07:59:31.181Z,13.24
2022-10-05T08:01:38.446Z,12.88
2022-10-05T08:03:52.106Z,12.26
2022-10-05T08:05:55.967Z,12.83
2022-10-05T08:08:07.700Z,13.09
2022-10-05T08:10:26.122Z,13.02
2022-10-05T08:12:35.845Z,12.90
2022-10-05T08:14:47.502Z,13.58
2022-10-05T08:16:53.881Z,13.38
2022-10-05T08:19:00.107Z,12.98
2022-10-05T08:21:05.693Z,13.50
2022-10-05T08:23:18.433Z,13.85
2022-10-05T08:25:26.735Z,14.23
2022-10-05T08:27:36.809Z,14.93
2022-10-05T08:29:51.364Z,16.27
2022-10-05T08:31:58.686Z,15.43
2022-10-05T08:34:12.715Z,14.79
2022-10-05T08:36:20.348Z,15.32
2022-10-05T08:38:30.868Z,15.73
2022-10-05T08:41:01.689Z,17.43
2022-10-05T08:43:23.632Z,18.00
2022-10-05T08:45:59.838Z,17.26
2022-10-05T08:48:16.046Z,19.26
2022-10-05T08:50:30.329Z,20.52
2022-10-05T08:52:37.435Z,19.57
2022-10-05T08:54:54.915Z,19.75
2022-10-05T08:57:23.919Z,19.08
2022-10-05T08:59:58.515Z,19.12
2022-10-05T09:02:21.477Z,20.87
2022-10-05T09:04:39.535Z,19.27
2022-10-05T09:07:08.793Z,19.67
2022-10-05T09:09:35.853Z,20.24
2022-10-05T09:11:40.683Z,22.21
2022-10-05T09:14:00.222Z,21.75
2022-10-05T09:16:28.508Z,22.80
2022-10-05T09:18:54.856Z,24.65
2022-10-05T09:21:02.806Z,24.50
2022-10-05T09:23:14.071Z,25.73
2022-10-05T09:25:23.659Z,24.98
2022-10-05T09:27:36.769Z,24.28
2022-10-05T09:30:23.268Z,25.95
2022-10-05T09:32:47.228Z,25.12
2022-10-05T09:35:16.935Z,23.12
2022-10-05T09:37:27.254Z,23.39
2022-10-05T09:40:01.204Z,22.11
2022-10-05T09:42:18.379Z,24.17
2022-10-05T09:44:50.019Z,23.54
2022-10-05T09:47:14.731Z,22.44
2022-10-05T09:50:07.826Z,22.52
2022-10-05T09:52:22.652Z,23.73
2022-10-05T09:55:03.020Z,23.30
2022-10-05T09:57:53.106Z,22.99
2022-10-05T10:00:21.017Z,21.27
2022-10-05T10:02:40.634Z,22.63
2022-10-05T10:05:09.592Z,21.95
2022-10-05T10:07:50.219Z,25.85
2022-10-05T10:10:22.922Z,24.03
2022-10-05T10:12:46.304Z,24.37
2022-10-05T10:15:26.956Z,24.44
2022-10-05T10:17:55.612Z,24.82
2022-10-05T10:20:31.720Z,22.51
2022-10-05T10:23:10.795Z,22.04
2022-10-05T10:25:31.697Z,21.98
2022-10-05T10:28:22.351Z,20.80
2022-10-05T10:30:47.668Z,21.59
2022-10-05T10:33:13.265Z,20.73
2022-10-05T10:35:26.704Z,20.49
2022-10-05T10:37:39.315Z,20.64
2022-10-05T10:40:01.531Z,21.04
2022-10-05T10:42:36.968Z,20.58
2022-10-05T10:45:13.769Z,20.53
2022-10-05T10:47:34.775Z,20.82
2022-10-05T10:49:54.594Z,20.89
2022-10-05T10:52:12.827Z,20.50
2022-10-05T10:54:33.001Z,20.48
2022-10-05T10:56:51.827Z,20.81
2022-10-05T10:59:29.249Z,20.72
2022-10-05T11:01:39.498Z,20.75
2022-10-05T11:04:15.878Z,20.92
2022-10-05T11:06:59.554Z,21.24
2022-10-05T11:09:23.600Z,21.02
2022-10-05T11:11:45.268Z,21.20
2022-10-05T11:14:12.568Z,20.89
2022-10-05T11:16:28.880Z,21.27
2022-10-05T11:18:53.674Z,21.29
2022-10-05T11:21:36.545Z,21.57
2022-10-05T11:24:32.601Z,21.37
2022-10-05T11:26:54.527Z,21.64
2022-10-05T11:29:20.876Z,21.45
2022-10-05T11:31:39.014Z,21.86
2022-10-05T11:34:35.184Z,21.76
2022-10-05T11:37:00.938Z,21.96
2022-10-05T11:39:36.967Z,21.80
2022-10-05T11:41:56.712Z,21.80
2022-10-05T11:44:26.867Z,21.64
2022-10-05T11:46:36.790Z,21.93
2022-10-05T11:49:12.962Z,21.74
2022-10-05T11:51:54.358Z,22.18
2022-10-05T11:54:07.887Z,21.90
2022-10-05T11:56:23.442Z,22.07
2022-10-05T11:58:30.335Z,22.67
2022-10-05T12:00:41.296Z,23.01
2022-10-05T12:03:09.331Z,23.17
2022-10-05T12:05:21.190Z,23.84
2022-10-05T12:07:36.177Z,23.57
2022-10-05T12:10:12.234Z,23.53
2022-10-05T12:12:22.109Z,24.02
2022-10-05T12:14:33.456Z,23.56
2022-10-05T12:16:45.921Z,23.37
2022-10-05T12:18:57.190Z,23.75
2022-10-05T12:21:06.066Z,23.54
2022-10-05T12:23:18.788Z,23.78
2022-10-05T12:25:28.013Z,23.22
2022-10-05T12:27:38.905Z,23.47
2022-10-05T12:29:46.065Z,23.38
2022-10-05T12:31:58.471Z,23.81
2022-10-05T12:34:11.252Z,23.80
2022-10-05T12:36:18.890Z,24.41
2022-10-05T12:38:29.378Z,24.35
2022-10-05T12:40:41.042Z,23.90
2022-10-05T12:42:52.812Z,24.73
2022-10-05T12:45:09.692Z,25.00
2022-10-05T12:47:21.022Z,24.19
2022-10-05T12:49:46.183Z,23.54
2022-10-05T12:51:56.982Z,23.83
2022-10-05T12:54:10.997Z,24.19
2022-10-05T12:56:24.830Z,24.47
2022-10-05T12:58:36.548Z,24.23
2022-10-05T13:00:49.448Z,24.04
2022-10-05T13:02:58.994Z,24.60
2022-10-05T13:05:19.582Z,24.09
2022-10-05T13:07:50.570Z,24.38
2022-10-05T13:10:09.520Z,24.49
2022-10-05T13:12:20.688Z,24.47
2022-10-05T13:14:44.100Z,24.48
2022-10-05T13:16:56.687Z,24.15
2022-10-05T13:19:10.461Z,24.11
2022-10-05T13:21:18.127Z,24.08
2022-10-05T13:23:31.318Z,24.17
2022-10-05T13:25:39.316Z,24.09
2022-10-05T13:27:46.170Z,24.15
2022-10-05T13:29:56.319Z,23.85
2022-10-05T13:32:04.740Z,24.13
2022-10-05T13:34:18.983Z,24.16
2022-10-05T13:36:31.303Z,24.32
2022-10-05T13:38:48.348Z,23.84
2022-10-05T13:40:59.560Z,24.09
2022-10-05T13:43:06.960Z,24.12
2022-10-05T13:45:16.565Z,23.91
2022-10-05T13:47:28.245Z,24.13
2022-10-05T13:49:39.545Z,23.97
2022-10-05T13:51:47.985Z,24.03
2022-10-05T13:53:57.146Z,23.66
2022-10-05T13:56:09.864Z,23.65
2022-10-05T13:58:20.393Z,23.80
2022-10-05T14:00:26.974Z,23.84
2022-10-05T14:02:36.527Z,23.66
2022-10-05T14:04:47.887Z,23.60
2022-10-05T14:06:51.802Z,23.49
2022-10-05T14:08:55.035Z,23.40
2022-10-05T14:10:58.172Z,23.36
2022-10-05T14:13:03.181Z,23.43
2022-10-05T14:15:22.414Z,23.41
2022-10-05T14:17:40.345Z,23.24
2022-10-05T14:19:46.084Z,23.24
2022-10-05T14:21:53.601Z,23.02
2022-10-05T14:23:57.178Z,22.89
2022-10-05T14:26:04.164Z,22.86
2022-10-05T14:28:29.562Z,22.80
2022-10-05T14:30:34.927Z,22.85
2022-10-05T14:32:51.569Z,22.96
2022-10-05T14:37:10.071Z,23.12
2022-10-05T14:39:14.113Z,23.01
2022-10-05T14:43:22.950Z,22.96
2022-10-05T14:45:29.756Z,23.09
2022-10-05T14:47:34.193Z,22.98
2022-10-05T14:49:50.336Z,23.02
2022-10-05T14:51:54.504Z,22.99
2022-10-05T14:53:58.768Z,22.90
2022-10-05T14:56:18.600Z,22.95
2022-10-05T14:58:37.930Z,22.91
2022-10-05T15:00:48.986Z,22.91
2022-10-05T15:03:18.597Z,22.89
2022-10-05T15:05:26.674Z,22.86
2022-10-05T15:07:38.815Z,22.79
2022-10-05T15:09:54.126Z,22.77
2022-10-05T15:11:59.124Z,22.77
2022-10-05T15:14:07.081Z,22.85
2022-10-05T15:16:18.974Z,22.85
2022-10-05T15:18:29.661Z,22.85
2022-10-05T15:20:43.662Z,22.87
2022-10-05T15:22:52.295Z,22.82
2022-10-05T15:25:02.623Z,22.79
2022-10-05T15:27:06.981Z,22.79
2022-10-05T15:29:36.564Z,22.69
2022-10-05T15:31:48.708Z,22.68
2022-10-05T15:33:59.849Z,22.55
2022-10-05T15:36:12.918Z,22.50
2022-10-05T15:38:21.869Z,22.41
2022-10-05T15:40:28.179Z,22.41
2022-10-05T15:42:34.747Z,22.42
2022-10-05T15:45:01.576Z,22.26
2022-10-05T15:47:07.713Z,22.20
2022-10-05T15:49:23.633Z,22.15
2022-10-05T15:51:37.487Z,22.04
2022-10-05T15:53:47.808Z,22.01
2022-10-05T15:55:54.603Z,21.86
2022-10-05T15:58:21.824Z,21.85
2022-10-05T16:00:27.835Z,21.86
2022-10-05T16:02:38.357Z,21.81
2022-10-05T16:04:48.775Z,21.77
2022-10-05T16:07:16.199Z,21.73
2022-10-05T16:09:36.372Z,21.55
2022-10-05T16:11:53.176Z,21.39
2022-10-05T16:14:05.204Z,21.39
2022-10-05T16:16:22.058Z,21.31
2022-10-05T16:18:42.755Z,21.27
2022-10-05T16:20:51.199Z,21.15
2022-10-05T16:22:59.523Z,21.06
2022-10-05T16:25:14.654Z,20.98
2022-10-05T16:27:26.724Z,20.88
2022-10-05T16:29:43.387Z,20.84
2022-10-05T16:31:55.082Z,20.74
2022-10-05T16:34:06.645Z,20.63
2022-10-05T16:36:20.665Z,20.59
2022-10-05T16:38:33.605Z,20.57
2022-10-05T16:40:42.397Z,20.47
2022-10-05T16:43:04.612Z,20.30
2022-10-05T16:45:21.295Z,20.26
2022-10-05T16:47:39.243Z,20.26
2022-10-05T16:49:50.330Z,20.07
2022-10-05T16:51:58.966Z,19.99
2022-10-05T16:54:13.037Z,20.03
2022-10-05T16:56:19.181Z,19.92
2022-10-05T16:58:27.538Z,19.84
2022-10-05T17:00:45.415Z,19.85
2022-10-05T17:03:10.186Z,19.69
2022-10-05T17:05:33.203Z,19.73
2022-10-05T17:07:59.396Z,19.63
2022-10-05T17:10:42.964Z,19.54
2022-10-05T17:13:01.700Z,19.41
2022-10-05T17:15:19.109Z,19.24
2022-10-05T17:17:52.056Z,19.00
2022-10-05T17:20:06.995Z,19.07
2022-10-05T17:22:14.199Z,18.98
2022-10-05T17:24:48.059Z,18.92
2022-10-05T17:27:02.399Z,18.85
2022-10-05T17:29:13.671Z,18.84
2022-10-05T17:31:19.232Z,18.74
2022-10-05T17:33:26.194Z,18.65
2022-10-05T17:35:51.762Z,18.50
2022-10-05T17:38:14.172Z,18.45
2022-10-05T17:40:33.996Z,18.43
2022-10-05T17:42:48.436Z,18.37
2022-10-05T17:44:55.020Z,18.32
2022-10-05T17:47:03.874Z,18.29
2022-10-05T17:49:26.788Z,18.35
2022-10-05T17:52:17.203Z,18.33
2022-10-05T17:54:39.602Z,18.21
2022-10-05T17:57:15.918Z,18.27
2022-10-05T17:59:39.431Z,18.18
2022-10-05T18:01:42.271Z,18.34
2022-10-05T18:03:48.861Z,18.31
2022-10-05T18:06:24.243Z,18.25
2022-10-05T18:08:38.039Z,18.27
2022-10-05T18:11:21.627Z,18.22
2022-10-05T18:13:36.430Z,18.22
2022-10-05T18:15:45.806Z,18.29
2022-10-05T18:17:51.649Z,18.40
2022-10-05T18:20:13.236Z,18.52
2022-10-05T18:22:30.303Z,18.46
2022-10-05T18:24:55.704Z,18.52
2022-10-05T18:27:12.445Z,18.46
2022-10-05T18:29:43.445Z,18.53
2022-10-05T18:31:56.301Z,18.41
2022-10-05T18:34:23.176Z,18.38
2022-10-05T18:36:40.268Z,18.41
2022-10-05T18:38:52.997Z,18.41
2022-10-05T18:41:02.629Z,18.46
2022-10-05T18:43:22.173Z,18.33
2022-10-05T18:45:35.295Z,18.23
2022-10-05T18:47:47.394Z,18.21
2022-10-05T18:50:10.014Z,18.13
2022-10-05T18:52:21.634Z,18.05
2022-10-05T18:54:40.283Z,17.99
2022-10-05T18:56:50.078Z,17.91
2022-10-05T18:59:08.828Z,17.86
2022-10-05T19:01:39.464Z,18.04
2022-10-05T19:03:55.815Z,17.83
2022-10-05T19:06:13.080Z,17.77
2022-10-05T19:08:27.102Z,17.72
2022-10-05T19:10:39.348Z,17.64
2022-10-05T19:13:04.936Z,17.61
2022-10-05T19:15:20.285Z,17.61
2022-10-05T19:17:32.649Z,17.48
2022-10-05T19:19:58.055Z,17.50
2022-10-05T19:22:06.140Z,17.50
2022-10-05T19:24:39.819Z,17.50
2022-10-05T19:26:57.275Z,17.47
2022-10-05T19:29:07.043Z,17.33
2022-10-05T19:31:22.851Z,17.33
2022-10-05T19:33:34.511Z,17.37
2022-10-05T19:35:50.035Z,17.31
2022-10-05T19:38:05.682Z,17.33
2022-10-05T19:40:17.359Z,17.30
2022-10-05T19:42:48.791Z,17.37
2022-10-05T19:45:04.311Z,17.42
2022-10-05T19:47:18.522Z,17.55
2022-10-05T19:49:43.456Z,17.47
2022-10-05T19:51:50.736Z,17.54
2022-10-05T19:53:55.917Z,17.68
2022-10-05T19:56:19.979Z,17.62
2022-10-05T19:58:25.798Z,17.57
2022-10-05T20:00:31.207Z,17.49
2022-10-05T20:02:37.440Z,17.55
2022-10-05T20:04:46.043Z,17.51
2022-10-05T20:06:48.719Z,17.55
2022-10-05T20:08:53.758Z,17.45
2022-10-05T20:11:16.399Z,17.41
2022-10-05T20:13:22.052Z,17.36
2022-10-05T20:15:44.520Z,17.36
2022-10-05T20:18:05.191Z,17.26
2022-10-05T20:20:36.001Z,17.14
2022-10-05T20:22:46.158Z,17.12
2022-10-05T20:24:53.509Z,17.11
2022-10-05T20:27:05.776Z,16.98
2022-10-05T20:29:09.742Z,17.10
2022-10-05T20:31:14.444Z,17.04
2022-10-05T20:33:17.290Z,17.02
2022-10-05T20:35:22.181Z,16.96
2022-10-05T20:37:26.328Z,17.04
2022-10-05T20:39:31.179Z,16.98
2022-10-05T20:41:35.780Z,16.95
2022-10-05T20:43:39.308Z,16.79
2022-10-05T20:45:43.270Z,16.77
2022-10-05T20:47:47.264Z,16.72
2022-10-05T20:49:50.189Z,16.74
2022-10-05T20:51:55.690Z,16.66
2022-10-05T20:53:59.992Z,16.62
2022-10-05T20:56:04.335Z,16.56
2022-10-05T20:58:08.930Z,16.39
2022-10-05T21:00:13.069Z,16.30
2022-10-05T21:02:15.707Z,16.32
2022-10-05T21:04:19.411Z,16.29
2022-10-05T21:06:22.564Z,16.35
2022-10-05T21:08:25.553Z,16.20
2022-10-05T21:10:29.774Z,16.12
2022-10-05T21:12:34.621Z,16.09
2022-10-05T21:14:37.747Z,16.04
2022-10-05T21:16:41.333Z,16.04
2022-10-05T21:18:46.817Z,15.99
2022-10-05T21:20:50.474Z,15.95
2022-10-05T21:22:53.093Z,15.90
2022-10-05T21:24:55.803Z,15.84
2022-10-05T21:26:59.838Z,15.89
2022-10-05T21:29:03.072Z,15.82
2022-10-05T21:31:06.019Z,15.79
2022-10-05T21:33:08.743Z,15.74
2022-10-05T21:35:11.376Z,15.74
2022-10-05T21:37:15.342Z,15.72
2022-10-05T21:39:18.197Z,15.70
2022-10-05T21:41:21.735Z,15.60
2022-10-05T21:43:26.355Z,15.52
2022-10-05T21:45:30.708Z,15.50
2022-10-05T21:47:33.583Z,15.51
2022-10-05T21:49:37.162Z,15.46
2022-10-05T21:51:40.276Z,15.44
2022-10-05T21:53:46.946Z,15.36
2022-10-05T21:55:51.648Z,15.27
2022-10-05T21:57:56.596Z,15.27
2022-10-05T22:00:00.612Z,15.21
2022-10-05T22:02:03.443Z,15.18
2022-10-05T22:04:07.168Z,15.06
2022-10-05T22:06:10.291Z,15.13
2022-10-05T22:08:21.784Z,15.08
2022-10-05T22:10:24.946Z,15.15
2022-10-05T22:12:28.150Z,15.13
2022-10-05T22:14:31.441Z,15.01
2022-10-05T22:16:38.651Z,15.02
2022-10-05T22:18:41.765Z,14.94
2022-10-05T22:20:44.969Z,14.93
2022-10-05T22:22:48.472Z,14.91
2022-10-05T22:24:51.864Z,14.78
2022-10-05T22:26:54.605Z,14.85
2022-10-05T22:28:58.745Z,14.82
2022-10-05T22:31:04.455Z,14.81
2022-10-05T22:33:08.439Z,14.79
2022-10-05T22:35:11.832Z,14.81
2022-10-05T22:37:15.332Z,14.82
2022-10-05T22:39:19.356Z,14.72
2022-10-05T22:41:22.257Z,14.74
2022-10-05T22:43:27.105Z,14.63
2022-10-05T22:45:32.613Z,14.67
2022-10-05T22:47:35.965Z,14.55
2022-10-05T22:49:39.915Z,14.46
2022-10-05T22:51:42.572Z,14.59
2022-10-05T22:53:45.198Z,14.60
2022-10-05T22:55:47.840Z,14.70
2022-10-05T22:57:50.415Z,14.58
2022-10-05T22:59:53.026Z,14.59
2022-10-05T23:01:55.751Z,14.51
2022-10-05T23:03:58.463Z,14.44
2022-10-05T23:06:04.867Z,14.40
2022-10-05T23:08:08.019Z,14.40
2022-10-05T23:10:13.458Z,14.37
2022-10-05T23:12:16.080Z,14.42
2022-10-05T23:14:19.491Z,14.43
2022-10-05T23:16:24.113Z,14.40
2022-10-05T23:18:27.321Z,14.41
2022-10-05T23:20:30.160Z,14.38
2022-10-05T23:22:38.150Z,14.32
2022-10-05T23:24:40.716Z,14.25
2022-10-05T23:26:43.317Z,14.14
2022-10-05T23:28:47.433Z,14.28
2022-10-05T23:30:50.300Z,14.17
2022-10-05T23:32:52.886Z,14.21
2022-10-05T23:34:55.542Z,14.07
2022-10-05T23:36:58.223Z,14.08
2022-10-05T23:39:02.174Z,14.02
2022-10-05T23:41:05.908Z,14.17
2022-10-05T23:43:08.469Z,14.07
2022-10-05T23:45:12.854Z,14.12
2022-10-05T23:47:15.473Z,14.04
2022-10-05T23:49:18.087Z,14.05
2022-10-05T23:51:20.658Z,14.11
2022-10-05T23:53:24.041Z,14.02
2022-10-05T23:55:28.064Z,13.93
2022-10-05T23:57:30.901Z,13.91
2022-10-05T23:59:33.501Z,13.89
